createdAt,value
2016-03-14T00:00:03.120Z,3.48
2016-03-14T00:01:03.342Z,3.5
2016-03-14T00:02:03.110Z,3.52
2016-03-14T00:03:03.097Z,3.58
2016-03-14T00:04:03.084Z,3.55
2016-03-14T00:05:03.072Z,3.58
2016-03-14T00:06:03.808Z,3.58
2016-03-14T00:07:17.248Z,3.55
2016-03-14T00:08:03.064Z,3.55
2016-03-14T00:09:03.051Z,3.52
2016-03-14T00:10:03.585Z,3.54
2016-03-14T00:11:03.025Z,3.52
2016-03-14T00:12:03.262Z,3.6
2016-03-14T00:13:02.999Z,3.62
2016-03-14T00:14:02.986Z,3.72
2016-03-14T00:15:02.989Z,3.8
2016-03-14T00:16:02.960Z,3.7
2016-03-14T00:17:02.948Z,3.88
2016-03-14T00:18:02.966Z,3.96
2016-03-14T00:19:02.938Z,3.93
2016-03-14T00:20:02.940Z,4
2016-03-14T00:21:02.958Z,4.05
2016-03-14T00:22:02.898Z,3.97
2016-03-14T00:23:02.916Z,4.12
2016-03-14T00:24:02.888Z,4.18
2016-03-14T00:25:02.890Z,4.09
2016-03-14T00:26:02.862Z,4.2
2016-03-14T00:27:02.865Z,4.16
2016-03-14T00:28:02.852Z,4.14
2016-03-14T00:29:02.854Z,4.23
2016-03-14T00:30:02.826Z,4.27
2016-03-14T00:31:02.829Z,4.24
2016-03-14T00:32:02.815Z,4.26
2016-03-14T00:33:02.834Z,4.27
2016-03-14T00:34:02.790Z,4.23
2016-03-14T00:35:02.792Z,4.15
2016-03-14T00:36:02.781Z,4.16
2016-03-14T00:37:02.783Z,4.05
2016-03-14T00:38:02.770Z,4.04
2016-03-14T00:39:02.756Z,3.9
2016-03-14T00:40:02.759Z,3.9
2016-03-14T00:41:02.746Z,3.73
2016-03-14T00:42:02.717Z,3.66
2016-03-14T00:43:02.705Z,3.62
2016-03-14T00:44:02.692Z,3.51
2016-03-14T00:45:02.694Z,3.33
2016-03-14T00:46:02.666Z,3.39
2016-03-14T00:47:02.685Z,3.31
2016-03-14T00:48:02.655Z,3.36
2016-03-14T00:49:02.658Z,3.35
2016-03-14T00:50:02.630Z,3.28
2016-03-14T00:51:02.632Z,3.2
2016-03-14T00:52:02.619Z,3.21
2016-03-14T00:53:02.607Z,3.21
2016-03-14T00:54:02.609Z,3.05
2016-03-14T00:55:02.596Z,3.1
2016-03-14T00:56:02.584Z,3.1
2016-03-14T00:57:02.571Z,3.2
2016-03-14T00:58:02.573Z,3.18
2016-03-14T00:59:02.601Z,3.15
2016-03-14T01:00:03.220Z,3.17
2016-03-14T01:01:04.066Z,3.13
2016-03-14T01:02:03.766Z,3.08
2016-03-14T01:03:02.972Z,3.05
2016-03-14T01:04:02.489Z,3.13
2016-03-14T01:05:02.492Z,3.13
2016-03-14T01:06:02.542Z,3.08
2016-03-14T01:07:02.607Z,3.11
2016-03-14T01:08:02.454Z,3.13
2016-03-14T01:10:03.788Z,3.14
2016-03-14T01:11:02.680Z,3.13
2016-03-14T01:12:03.683Z,3.06
2016-03-14T01:13:02.405Z,3.08
2016-03-14T01:14:03.251Z,2.97
2016-03-14T01:15:03.816Z,2.87
2016-03-14T01:16:03.287Z,2.93
2016-03-14T01:17:02.821Z,2.95
2016-03-14T01:18:02.356Z,2.87
2016-03-14T01:19:02.874Z,2.85
2016-03-14T01:20:02.954Z,2.81
2016-03-14T01:21:02.957Z,2.79
2016-03-14T01:22:02.320Z,2.84
2016-03-14T01:23:02.431Z,2.77
2016-03-14T01:24:02.293Z,2.69
2016-03-14T01:25:02.374Z,2.67
2016-03-14T01:26:16.455Z,2.72
2016-03-14T01:27:02.270Z,2.69
2016-03-14T01:28:02.242Z,2.72
2016-03-14T01:29:02.260Z,2.72
2016-03-14T01:30:02.232Z,2.71
2016-03-14T01:31:02.562Z,2.72
2016-03-14T01:32:02.206Z,2.72
2016-03-14T01:33:02.224Z,2.69
2016-03-14T01:34:02.180Z,2.72
2016-03-14T01:35:02.183Z,2.72
2016-03-14T01:36:02.153Z,2.67
2016-03-14T01:37:02.828Z,2.67
2016-03-14T01:38:02.144Z,2.69
2016-03-14T01:39:02.147Z,2.74
2016-03-14T01:40:02.102Z,2.69
2016-03-14T01:41:02.105Z,2.66
2016-03-14T01:42:02.092Z,2.63
2016-03-14T01:43:02.094Z,2.69
2016-03-14T01:44:02.066Z,2.61
2016-03-14T01:45:02.069Z,2.59
2016-03-14T01:46:02.071Z,2.59
2016-03-14T01:47:02.043Z,2.6
2016-03-14T01:48:02.077Z,2.69
2016-03-14T01:49:02.032Z,2.61
2016-03-14T01:50:02.035Z,2.57
2016-03-14T01:51:02.007Z,2.61
2016-03-14T01:52:02.025Z,2.57
2016-03-14T01:53:01.981Z,2.54
2016-03-14T01:54:01.983Z,2.64
2016-03-14T01:55:01.987Z,2.57
2016-03-14T01:56:01.942Z,2.6
2016-03-14T01:57:01.945Z,2.61
2016-03-14T01:58:01.932Z,2.67
2016-03-14T01:59:01.919Z,2.6
2016-03-14T02:00:01.906Z,2.61
2016-03-14T02:01:01.893Z,2.61
2016-03-14T02:02:01.927Z,2.6
2016-03-14T02:03:01.883Z,2.59
2016-03-14T02:04:01.870Z,2.54
2016-03-14T02:05:01.873Z,2.56
2016-03-14T02:06:01.875Z,2.43
2016-03-14T02:07:01.816Z,2.54
2016-03-14T02:08:01.834Z,2.59
2016-03-14T02:09:01.805Z,2.64
2016-03-14T02:10:01.855Z,2.57
2016-03-14T02:11:01.811Z,2.57
2016-03-14T02:12:01.782Z,2.57
2016-03-14T02:13:01.785Z,2.59
2016-03-14T02:14:01.788Z,2.57
2016-03-14T02:15:01.774Z,2.48
2016-03-14T02:16:01.761Z,2.56
2016-03-14T02:17:01.733Z,2.56
2016-03-14T02:18:01.720Z,2.56
2016-03-14T02:19:02.176Z,2.59
2016-03-14T02:20:02.913Z,2.59
2016-03-14T02:21:03.040Z,2.64
2016-03-14T02:22:02.621Z,2.6
2016-03-14T02:23:01.670Z,2.57
2016-03-14T02:24:01.643Z,2.56
2016-03-14T02:25:01.676Z,2.56
2016-03-14T02:26:01.867Z,2.54
2016-03-14T02:27:01.635Z,2.56
2016-03-14T02:28:01.622Z,2.56
2016-03-14T02:29:02.875Z,2.59
2016-03-14T02:30:01.799Z,2.59
2016-03-14T02:31:02.895Z,2.57
2016-03-14T02:32:01.551Z,2.67
2016-03-14T02:33:01.586Z,2.66
2016-03-14T02:34:01.951Z,2.66
2016-03-14T02:35:03.047Z,2.69
2016-03-14T02:36:30.550Z,2.56
2016-03-14T02:37:01.503Z,2.61
2016-03-14T02:38:02.258Z,2.57
2016-03-14T02:39:02.339Z,2.59
2016-03-14T02:40:01.495Z,2.56
2016-03-14T02:41:01.483Z,2.63
2016-03-14T02:42:01.485Z,2.56
2016-03-14T02:43:01.455Z,2.6
2016-03-14T02:44:01.600Z,2.67
2016-03-14T02:45:15.621Z,2.74
2016-03-14T02:46:01.418Z,2.64
2016-03-14T02:47:01.405Z,2.69
2016-03-14T02:48:01.391Z,2.77
2016-03-14T02:49:01.371Z,2.85
2016-03-14T02:50:01.752Z,2.79
2016-03-14T02:51:01.335Z,2.81
2016-03-14T02:52:01.309Z,2.81
2016-03-14T02:53:01.285Z,2.82
2016-03-14T02:54:01.279Z,2.87
2016-03-14T02:55:01.247Z,2.85
2016-03-14T02:56:01.244Z,2.74
2016-03-14T02:57:01.243Z,2.93
2016-03-14T02:58:01.209Z,2.87
2016-03-14T02:59:01.177Z,2.82
2016-03-14T03:00:01.178Z,2.85
2016-03-14T03:01:01.180Z,2.89
2016-03-14T03:02:01.165Z,2.87
2016-03-14T03:03:01.151Z,2.87
2016-03-14T03:04:01.137Z,2.87
2016-03-14T03:05:01.139Z,2.81
2016-03-14T03:06:01.125Z,2.78
2016-03-14T03:07:00.939Z,2.89
2016-03-14T03:08:01.098Z,2.92
2016-03-14T03:09:01.085Z,2.89
2016-03-14T03:10:01.072Z,2.84
2016-03-14T03:11:01.058Z,2.84
2016-03-14T03:12:01.030Z,2.82
2016-03-14T03:13:01.017Z,2.84
2016-03-14T03:14:01.036Z,2.81
2016-03-14T03:15:01.023Z,2.82
2016-03-14T03:16:01.010Z,2.85
2016-03-14T03:17:01.012Z,2.82
2016-03-14T03:18:01.000Z,2.95
2016-03-14T03:19:00.971Z,2.95
2016-03-14T03:20:00.974Z,2.82
2016-03-14T03:21:00.960Z,2.85
2016-03-14T03:22:00.948Z,2.85
2016-03-14T03:23:00.934Z,2.85
2016-03-14T03:24:00.937Z,2.87
2016-03-14T03:25:00.909Z,2.93
2016-03-14T03:26:00.896Z,2.95
2016-03-14T03:27:00.898Z,2.87
2016-03-14T03:28:00.870Z,2.95
2016-03-14T03:29:00.872Z,2.84
2016-03-14T03:30:00.859Z,2.87
2016-03-14T03:31:00.847Z,2.87
2016-03-14T03:32:00.834Z,2.78
2016-03-14T03:33:00.822Z,2.85
2016-03-14T03:34:00.824Z,2.97
2016-03-14T03:35:00.811Z,2.78
2016-03-14T03:36:00.814Z,2.87
2016-03-14T03:37:00.786Z,2.81
2016-03-14T03:38:01.022Z,2.72
2016-03-14T03:39:01.947Z,2.67
2016-03-14T03:40:01.980Z,2.74
2016-03-14T03:41:01.546Z,2.75
2016-03-14T03:42:00.783Z,2.78
2016-03-14T03:43:01.317Z,2.81
2016-03-14T03:44:00.710Z,2.82
2016-03-14T03:45:00.713Z,2.85
2016-03-14T03:46:00.699Z,2.82
2016-03-14T03:47:01.484Z,2.84
2016-03-14T03:48:01.111Z,2.87
2016-03-14T03:49:00.646Z,2.9
2016-03-14T03:50:01.617Z,2.97
2016-03-14T03:51:00.620Z,3.02
2016-03-14T03:52:00.622Z,3
2016-03-14T03:53:00.610Z,3.08
2016-03-14T03:54:15.177Z,3.05
2016-03-14T03:55:15.429Z,3.11
2016-03-14T03:56:00.836Z,3.1
2016-03-14T03:57:00.573Z,3.17
2016-03-14T03:58:00.559Z,3.03
2016-03-14T03:59:00.562Z,3.14
2016-03-14T04:00:00.565Z,3.1
2016-03-14T04:01:00.553Z,3.08
2016-03-14T04:02:00.508Z,3.26
2016-03-14T04:03:01.230Z,3.31
2016-03-14T04:04:14.688Z,3.29
2016-03-14T04:05:00.485Z,3.24
2016-03-14T04:06:00.472Z,3.2
2016-03-14T04:07:00.491Z,3.2
2016-03-14T04:08:01.165Z,3.2
2016-03-14T04:09:00.449Z,3.23
2016-03-14T04:10:00.483Z,3.26
2016-03-14T04:11:00.439Z,3.24
2016-03-14T04:12:00.458Z,3.21
2016-03-14T04:13:00.413Z,3.26
2016-03-14T04:14:00.415Z,3.21
2016-03-14T04:15:00.402Z,3.28
2016-03-14T04:16:00.374Z,3.23
2016-03-14T04:17:00.361Z,3.23
2016-03-14T04:18:00.349Z,3.23
2016-03-14T04:19:00.367Z,3.15
2016-03-14T04:20:00.322Z,3.1
2016-03-14T04:21:00.356Z,3.03
2016-03-14T04:22:00.312Z,3.03
2016-03-14T04:23:00.331Z,3.05
2016-03-14T04:24:00.302Z,2.97
2016-03-14T04:25:00.290Z,2.9
2016-03-14T04:26:00.292Z,2.9
2016-03-14T04:27:00.263Z,2.9
2016-03-14T04:28:00.266Z,2.95
2016-03-14T04:29:00.238Z,2.96
2016-03-14T04:30:00.240Z,3.05
2016-03-14T04:31:00.228Z,2.96
2016-03-14T04:32:00.214Z,3.05
2016-03-14T04:33:00.217Z,2.99
2016-03-14T04:34:00.204Z,3.05
2016-03-14T04:35:00.192Z,3.02
2016-03-14T04:36:00.162Z,3.03
2016-03-14T04:37:00.181Z,3.02
2016-03-14T04:38:00.152Z,3
2016-03-14T04:39:00.155Z,3.02
2016-03-14T04:40:00.142Z,3.1
2016-03-14T04:41:00.114Z,3.13
2016-03-14T04:42:00.116Z,3.11
2016-03-14T04:43:00.088Z,3.18
2016-03-14T04:44:00.105Z,3.15
2016-03-14T04:45:00.062Z,3.21
2016-03-14T04:46:00.080Z,3.06
2016-03-14T04:47:00.052Z,3.03
2016-03-14T04:48:00.069Z,3.14
2016-03-14T04:49:00.026Z,3.14
2016-03-14T04:50:00.028Z,3.14
2016-03-14T04:51:00.062Z,3.13
2016-03-14T04:52:00.018Z,3.1
2016-03-14T04:53:00.005Z,3.05
2016-03-14T04:53:59.992Z,3.05
2016-03-14T04:54:59.979Z,3.11
2016-03-14T04:55:59.951Z,3.11
2016-03-14T04:57:02.312Z,3.13
2016-03-14T04:58:00.175Z,3.14
2016-03-14T04:59:00.599Z,3.08
2016-03-14T05:00:00.539Z,3.08
2016-03-14T05:00:59.917Z,3.13
2016-03-14T05:01:59.998Z,3.08
2016-03-14T05:03:00.251Z,3.03
2016-03-14T05:03:59.910Z,2.96
2016-03-14T05:05:00.006Z,2.96
2016-03-14T05:05:59.868Z,2.89
2016-03-14T05:06:59.902Z,2.87
2016-03-14T05:07:59.873Z,2.85
2016-03-14T05:09:00.705Z,2.82
2016-03-14T05:09:59.833Z,2.81
2016-03-14T05:10:59.819Z,2.85
2016-03-14T05:12:00.291Z,2.77
2016-03-14T05:13:00.761Z,2.77
2016-03-14T05:14:00.639Z,2.71
2016-03-14T05:14:59.908Z,2.71
2016-03-14T05:16:59.757Z,2.64
2016-03-14T05:17:59.744Z,2.6
2016-03-14T05:18:59.746Z,2.63
2016-03-14T05:19:59.719Z,2.53
2016-03-14T05:20:59.721Z,2.45
2016-03-14T05:21:59.693Z,2.56
2016-03-14T05:23:01.257Z,2.59
2016-03-14T05:23:59.682Z,2.56
2016-03-14T05:25:00.059Z,2.6
2016-03-14T05:25:59.656Z,2.63
2016-03-14T05:26:59.643Z,2.59
2016-03-14T05:27:59.646Z,2.56
2016-03-14T05:28:59.617Z,2.59
2016-03-14T05:29:59.620Z,2.52
2016-03-14T05:30:59.591Z,2.54
2016-03-14T05:31:59.578Z,2.43
2016-03-14T05:32:59.565Z,2.39
2016-03-14T05:33:59.568Z,2.39
2016-03-14T05:34:59.555Z,2.41
2016-03-14T05:35:59.542Z,2.38
2016-03-14T05:36:59.530Z,2.39
2016-03-14T05:37:59.517Z,2.3
2016-03-14T05:38:59.520Z,2.31
2016-03-14T05:39:59.506Z,2.23
2016-03-14T05:40:59.494Z,2.31
2016-03-14T05:41:59.480Z,2.2
2016-03-14T05:42:59.467Z,2.31
2016-03-14T05:43:59.455Z,2.36
2016-03-14T05:44:59.458Z,2.36
2016-03-14T05:45:59.429Z,2.43
2016-03-14T05:46:59.432Z,2.36
2016-03-14T05:47:59.418Z,2.36
2016-03-14T05:48:59.421Z,2.41
2016-03-14T05:49:59.393Z,2.49
2016-03-14T05:50:59.395Z,2.35
2016-03-14T05:51:59.382Z,2.36
2016-03-14T05:52:59.369Z,2.61
2016-03-14T05:53:59.357Z,2.54
2016-03-14T05:54:59.359Z,2.59
2016-03-14T05:55:59.331Z,2.63
2016-03-14T05:56:59.334Z,2.71
2016-03-14T05:57:59.179Z,2.66
2016-03-14T05:58:59.307Z,2.85
2016-03-14T05:59:59.294Z,2.78
2016-03-14T06:00:59.312Z,2.85
2016-03-14T06:01:59.268Z,2.84
2016-03-14T06:02:59.287Z,2.87
2016-03-14T06:03:59.242Z,2.81
2016-03-14T06:04:59.245Z,2.93
2016-03-14T06:05:59.216Z,2.97
2016-03-14T06:06:59.209Z,3.08
2016-03-14T06:07:59.212Z,3.11
2016-03-14T06:08:59.199Z,3.06
2016-03-14T06:09:59.202Z,3.29
2016-03-14T06:10:59.188Z,3.24
2016-03-14T06:11:59.175Z,3.23
2016-03-14T06:12:59.146Z,3.35
2016-03-14T06:13:59.150Z,3.29
2016-03-14T06:14:59.136Z,3.39
2016-03-14T06:16:00.546Z,3.48
2016-03-14T06:16:59.173Z,3.52
2016-03-14T06:17:59.832Z,3.43
2016-03-14T06:18:59.740Z,3.57
2016-03-14T06:19:59.385Z,3.51
2016-03-14T06:20:59.074Z,3.55
2016-03-14T06:21:59.062Z,3.62
2016-03-14T06:22:59.032Z,3.66
2016-03-14T06:23:59.035Z,3.65
2016-03-14T06:24:59.038Z,3.75
2016-03-14T06:25:59.026Z,3.72
2016-03-14T06:26:58.856Z,3.79
2016-03-14T06:28:00.406Z,3.76
2016-03-14T06:28:58.986Z,3.75
2016-03-14T06:29:59.161Z,3.91
2016-03-14T06:30:59.414Z,3.97
2016-03-14T06:32:00.339Z,3.91
2016-03-14T06:33:13.141Z,3.93
2016-03-14T06:34:00.062Z,4
2016-03-14T06:34:59.128Z,4.09
2016-03-14T06:35:59.630Z,4.04
2016-03-14T06:36:58.930Z,4.09
2016-03-14T06:37:58.902Z,4.15
2016-03-14T06:38:58.905Z,4.24
2016-03-14T06:39:58.875Z,4.37
2016-03-14T06:40:59.206Z,4.52
2016-03-14T06:41:58.865Z,4.58
2016-03-14T06:43:58.855Z,4.48
2016-03-14T06:44:58.827Z,4.5
2016-03-14T06:45:58.829Z,4.52
2016-03-14T06:46:58.926Z,4.51
2016-03-14T06:47:58.803Z,4.6
2016-03-14T06:48:58.806Z,4.65
2016-03-14T06:49:58.793Z,4.52
2016-03-14T06:50:58.796Z,4.37
2016-03-14T06:51:58.782Z,4.26
2016-03-14T06:52:58.785Z,4.18
2016-03-14T06:53:58.756Z,4.04
2016-03-14T06:54:58.759Z,3.93
2016-03-14T06:55:58.653Z,3.9
2016-03-14T06:56:58.703Z,3.83
2016-03-14T06:57:58.720Z,3.84
2016-03-14T06:58:58.708Z,3.87
2016-03-14T06:59:58.711Z,3.93
2016-03-14T07:00:58.714Z,3.93
2016-03-14T07:01:58.685Z,4.14
2016-03-14T07:02:58.703Z,4.18
2016-03-14T07:03:58.690Z,4.29
2016-03-14T07:04:58.677Z,4.42
2016-03-14T07:05:58.648Z,4.55
2016-03-14T07:06:58.651Z,4.67
2016-03-14T07:07:58.639Z,4.96
2016-03-14T07:08:58.486Z,5.28
2016-03-14T07:09:58.644Z,5.58
2016-03-14T07:10:58.537Z,5.75
2016-03-14T07:11:58.618Z,5.85
2016-03-14T07:12:58.605Z,6.09
2016-03-14T07:13:58.607Z,6.31
2016-03-14T07:14:58.595Z,6.34
2016-03-14T07:15:58.597Z,6.38
2016-03-14T07:16:58.585Z,6.54
2016-03-14T07:17:58.571Z,6.69
2016-03-14T07:18:58.591Z,6.85
2016-03-14T07:19:58.624Z,7.03
2016-03-14T07:20:58.580Z,7.17
2016-03-14T07:21:58.582Z,7.43
2016-03-14T07:22:58.569Z,7.57
2016-03-14T07:23:58.571Z,7.53
2016-03-14T07:24:58.575Z,7.6
2016-03-14T07:25:58.437Z,7.63
2016-03-14T07:26:58.580Z,7.63
2016-03-14T07:27:58.551Z,7.83
2016-03-14T07:28:58.570Z,7.82
2016-03-14T07:29:58.541Z,7.97
2016-03-14T07:30:58.559Z,8.02
2016-03-14T07:31:58.547Z,8.08
2016-03-14T07:32:58.565Z,8.2
2016-03-14T07:33:58.537Z,8.41
2016-03-14T07:35:00.773Z,8.41
2016-03-14T07:35:59.245Z,8.55
2016-03-14T07:36:58.545Z,8.5
2016-03-14T07:37:58.564Z,8.33
2016-03-14T07:38:58.534Z,8.2
2016-03-14T07:39:59.083Z,8.15
2016-03-14T07:40:58.602Z,8.18
2016-03-14T07:41:58.558Z,8.25
2016-03-14T07:42:58.545Z,8.4
2016-03-14T07:43:58.548Z,8.47
2016-03-14T07:45:00.269Z,8.37
2016-03-14T07:46:00.116Z,8.44
2016-03-14T07:46:59.337Z,8.37
2016-03-14T07:47:58.527Z,8.29
2016-03-14T07:48:58.561Z,8.18
2016-03-14T07:49:59.080Z,8.01
2016-03-14T07:51:12.788Z,7.95
2016-03-14T07:51:58.897Z,8
2016-03-14T07:53:13.513Z,8.22
2016-03-14T07:53:59.169Z,8.4
2016-03-14T07:55:58.549Z,8.59
2016-03-14T07:56:58.535Z,8.66
2016-03-14T07:57:58.523Z,8.73
2016-03-14T07:58:58.525Z,8.8
2016-03-14T07:59:59.482Z,8.79
2016-03-14T08:00:59.312Z,8.92
2016-03-14T08:01:58.518Z,8.94
2016-03-14T08:02:58.614Z,8.86
2016-03-14T08:03:58.804Z,8.87
2016-03-14T08:04:58.495Z,8.96
2016-03-14T08:05:58.529Z,9.02
2016-03-14T08:06:58.528Z,9.18
2016-03-14T08:07:58.531Z,9.2
2016-03-14T08:08:58.533Z,9.21
2016-03-14T08:09:58.522Z,9.21
2016-03-14T08:10:58.539Z,8.91
2016-03-14T08:11:58.527Z,8.76
2016-03-14T08:12:58.513Z,8.41
2016-03-14T08:13:58.500Z,8.28
2016-03-14T08:14:58.502Z,7.87
2016-03-14T08:15:58.521Z,7.55
2016-03-14T08:16:58.524Z,7.52
2016-03-14T08:17:58.511Z,7.39
2016-03-14T08:18:58.529Z,7.46
2016-03-14T08:19:58.516Z,7.37
2016-03-14T08:20:58.518Z,7.4
2016-03-14T08:21:58.490Z,7.32
2016-03-14T08:22:58.493Z,7.21
2016-03-14T08:23:58.496Z,7.17
2016-03-14T08:24:58.482Z,7.28
2016-03-14T08:25:58.470Z,7.28
2016-03-14T08:26:58.473Z,7.46
2016-03-14T08:27:58.476Z,7.57
2016-03-14T08:28:58.478Z,7.64
2016-03-14T08:29:58.465Z,7.64
2016-03-14T08:30:58.467Z,7.55
2016-03-14T08:31:58.298Z,7.57
2016-03-14T08:32:58.458Z,7.49
2016-03-14T08:33:58.445Z,7.46
2016-03-14T08:34:58.463Z,7.4
2016-03-14T08:35:58.466Z,7.4
2016-03-14T08:36:58.469Z,7.45
2016-03-14T08:37:58.439Z,7.61
2016-03-14T08:38:58.442Z,7.6
2016-03-14T08:39:58.430Z,7.57
2016-03-14T08:40:58.433Z,7.57
2016-03-14T08:41:58.436Z,7.61
2016-03-14T08:42:58.422Z,7.4
2016-03-14T08:43:58.409Z,7.45
2016-03-14T08:44:58.412Z,7.45
2016-03-14T08:45:58.399Z,7.4
2016-03-14T08:46:58.402Z,7.06
2016-03-14T08:47:58.388Z,6.76
2016-03-14T08:48:58.407Z,6.55
2016-03-14T08:49:58.379Z,6.71
2016-03-14T08:50:58.413Z,7.23
2016-03-14T08:51:58.399Z,7.09
2016-03-14T08:52:58.387Z,7.58
2016-03-14T08:54:59.657Z,8.22
2016-03-14T08:55:58.348Z,8.34
2016-03-14T08:56:58.429Z,9.02
2016-03-14T08:57:58.446Z,14.54
2016-03-14T08:58:58.356Z,15.65
2016-03-14T08:59:58.812Z,15.57
2016-03-14T09:00:58.518Z,15.13
2016-03-14T09:01:58.348Z,14.4
2016-03-14T09:02:58.382Z,13.77
2016-03-14T09:03:58.619Z,13.17
2016-03-14T09:04:58.325Z,12.57
2016-03-14T09:05:58.312Z,11.82
2016-03-14T09:06:59.081Z,11.09
2016-03-14T09:07:58.317Z,10.34
2016-03-14T09:08:58.305Z,9.84
2016-03-14T09:10:12.513Z,9.42
2016-03-14T09:10:58.310Z,9.15
2016-03-14T09:11:58.297Z,8.95
2016-03-14T09:12:58.299Z,9.08
2016-03-14T09:13:58.286Z,9.13
2016-03-14T09:14:58.992Z,9.17
2016-03-14T09:15:58.136Z,9.11
2016-03-14T09:16:58.263Z,9.01
2016-03-14T09:17:58.297Z,8.96
2016-03-14T09:18:59.127Z,8.92
2016-03-14T09:20:12.618Z,8.89
2016-03-14T09:20:59.258Z,9.08
2016-03-14T09:21:58.277Z,9.1
2016-03-14T09:22:58.248Z,9.18
2016-03-14T09:23:58.251Z,9.33
2016-03-14T09:24:58.253Z,9.35
2016-03-14T09:25:58.257Z,9.36
2016-03-14T09:26:58.243Z,9.31
2016-03-14T09:27:58.231Z,9.35
2016-03-14T09:28:58.248Z,9.28
2016-03-14T09:29:58.251Z,9.32
2016-03-14T09:30:58.239Z,9.39
2016-03-14T09:31:58.225Z,9.14
2016-03-14T09:32:58.229Z,8.98
2016-03-14T09:33:58.215Z,8.86
2016-03-14T09:34:58.234Z,8.7
2016-03-14T09:35:58.205Z,8.55
2016-03-14T09:36:58.239Z,8.61
2016-03-14T09:37:58.211Z,8.48
2016-03-14T09:38:58.214Z,8.47
2016-03-14T09:39:58.184Z,8.38
2016-03-14T09:40:58.203Z,8.33
2016-03-14T09:41:58.190Z,8.22
2016-03-14T09:42:58.193Z,8.29
2016-03-14T09:43:58.180Z,8.33
2016-03-14T09:44:58.183Z,8.38
2016-03-14T09:45:58.170Z,8.5
2016-03-14T09:46:58.188Z,8.53
2016-03-14T09:47:58.175Z,8.55
2016-03-14T09:48:58.162Z,8.55
2016-03-14T09:49:58.165Z,8.52
2016-03-14T09:50:58.168Z,8.41
2016-03-14T09:51:58.154Z,8.4
2016-03-14T09:52:58.158Z,8.22
2016-03-14T09:53:58.191Z,8.07
2016-03-14T09:54:58.147Z,8
2016-03-14T09:55:58.134Z,8.16
2016-03-14T09:56:58.121Z,8.16
2016-03-14T09:57:58.123Z,8.26
2016-03-14T09:58:58.142Z,8.22
2016-03-14T09:59:58.113Z,8.3
2016-03-14T10:00:58.116Z,8.3
2016-03-14T10:01:58.119Z,8.33
2016-03-14T10:02:58.090Z,8.37
2016-03-14T10:03:58.109Z,8.34
2016-03-14T10:04:58.096Z,8.3
2016-03-14T10:05:58.098Z,8.26
2016-03-14T10:06:58.075Z,8.22
2016-03-14T10:07:58.097Z,8.19
2016-03-14T10:08:58.054Z,8.02
2016-03-14T10:09:57.916Z,7.85
2016-03-14T10:10:58.059Z,7.77
2016-03-14T10:11:58.046Z,7.75
2016-03-14T10:12:58.424Z,7.79
2016-03-14T10:13:58.052Z,7.79
2016-03-14T10:14:58.836Z,7.83
2016-03-14T10:15:59.291Z,7.8
2016-03-14T10:16:58.810Z,7.92
2016-03-14T10:17:58.671Z,7.98
2016-03-14T10:18:58.580Z,7.98
2016-03-14T10:19:58.021Z,8
2016-03-14T10:20:58.007Z,7.86
2016-03-14T10:21:58.011Z,7.8
2016-03-14T10:22:58.935Z,7.8
2016-03-14T10:23:59.110Z,7.8
2016-03-14T10:24:58.659Z,7.85
2016-03-14T10:25:57.990Z,7.83
2016-03-14T10:26:58.540Z,7.67
2016-03-14T10:27:58.354Z,7.46
2016-03-14T10:28:58.780Z,7.27
2016-03-14T10:29:59.470Z,7.21
2016-03-14T10:31:12.740Z,7.13
2016-03-14T10:31:58.553Z,7.06
2016-03-14T10:32:57.947Z,7.12
2016-03-14T10:33:57.918Z,7.23
2016-03-14T10:34:57.937Z,7.27
2016-03-14T10:35:57.923Z,7.34
2016-03-14T10:36:57.925Z,7.52
2016-03-14T10:38:12.463Z,7.5
2016-03-14T10:39:12.088Z,7.39
2016-03-14T10:39:57.997Z,7.48
2016-03-14T10:41:12.233Z,7.39
2016-03-14T10:42:58.333Z,7.48
2016-03-14T10:43:57.883Z,7.49
2016-03-14T10:44:57.869Z,7.63
2016-03-14T10:45:57.872Z,7.63
2016-03-14T10:46:57.860Z,7.64
2016-03-14T10:47:57.830Z,7.68
2016-03-14T10:48:57.849Z,7.75
2016-03-14T10:49:57.852Z,7.83
2016-03-14T10:50:57.838Z,7.79
2016-03-14T10:51:57.841Z,7.79
2016-03-14T10:52:57.812Z,7.79
2016-03-14T10:53:57.831Z,7.82
2016-03-14T10:54:57.802Z,7.86
2016-03-14T10:55:57.789Z,7.85
2016-03-14T10:56:57.808Z,7.83
2016-03-14T10:57:57.795Z,7.8
2016-03-14T10:58:57.782Z,7.77
2016-03-14T10:59:57.784Z,7.9
2016-03-14T11:00:57.788Z,7.89
2016-03-14T11:01:57.776Z,7.85
2016-03-14T11:02:57.762Z,7.95
2016-03-14T11:03:57.765Z,8.01
2016-03-14T11:04:57.752Z,7.98
2016-03-14T11:05:57.755Z,8.07
2016-03-14T11:06:57.742Z,7.98
2016-03-14T11:07:57.745Z,7.98
2016-03-14T11:08:57.716Z,7.83
2016-03-14T11:09:57.718Z,7.89
2016-03-14T11:10:57.706Z,7.86
2016-03-14T11:11:57.692Z,7.79
2016-03-14T11:12:57.711Z,7.74
2016-03-14T11:13:57.714Z,7.68
2016-03-14T11:14:57.701Z,7.61
2016-03-14T11:15:57.689Z,7.45
2016-03-14T11:16:57.675Z,7.43
2016-03-14T11:17:57.678Z,7.49
2016-03-14T11:18:57.664Z,7.48
2016-03-14T11:19:57.667Z,7.55
2016-03-14T11:20:57.655Z,7.6
2016-03-14T11:21:57.645Z,7.67
2016-03-14T11:22:57.631Z,7.69
2016-03-14T11:23:57.618Z,7.71
2016-03-14T11:24:57.652Z,7.77
2016-03-14T11:25:57.624Z,7.74
2016-03-14T11:26:57.627Z,7.8
2016-03-14T11:27:57.629Z,7.85
2016-03-14T11:28:57.601Z,7.85
2016-03-14T11:29:57.619Z,7.92
2016-03-14T11:30:57.621Z,8
2016-03-14T11:31:58.375Z,7.93
2016-03-14T11:32:58.768Z,7.89
2016-03-14T11:33:57.771Z,7.89
2016-03-14T11:34:57.727Z,7.87
2016-03-14T11:35:57.573Z,7.97
2016-03-14T11:36:57.607Z,7.98
2016-03-14T11:37:57.750Z,7.92
2016-03-14T11:38:57.487Z,7.98
2016-03-14T11:39:57.552Z,8.05
2016-03-14T11:40:57.523Z,8.02
2016-03-14T11:41:58.387Z,8.04
2016-03-14T11:42:57.529Z,8.05
2016-03-14T11:43:57.531Z,8
2016-03-14T11:44:58.519Z,8.08
2016-03-14T11:45:57.537Z,7.98
2016-03-14T11:46:57.509Z,8.11
2016-03-14T11:48:58.076Z,8.12
2016-03-14T11:49:58.392Z,8.11
2016-03-14T11:50:57.848Z,8.19
2016-03-14T11:51:57.475Z,8.16
2016-03-14T11:52:57.494Z,8.16
2016-03-14T11:53:57.464Z,8.15
2016-03-14T11:54:57.460Z,8.11
2016-03-14T11:55:57.439Z,8.12
2016-03-14T11:56:57.462Z,8.12
2016-03-14T11:57:57.705Z,8.02
2016-03-14T11:58:57.376Z,8.02
2016-03-14T11:59:57.826Z,8.05
2016-03-14T12:00:58.059Z,8.15
2016-03-14T12:01:57.715Z,8.11
2016-03-14T12:02:57.432Z,8.12
2016-03-14T12:03:57.556Z,8.34
2016-03-14T12:04:57.307Z,8.3
2016-03-14T12:05:57.324Z,8.26
2016-03-14T12:06:57.295Z,8.33
2016-03-14T12:07:57.312Z,8.33
2016-03-14T12:08:57.313Z,8.37
2016-03-14T12:09:57.300Z,8.36
2016-03-14T12:10:57.271Z,8.34
2016-03-14T12:11:57.289Z,8.29
2016-03-14T12:12:57.261Z,8.34
2016-03-14T12:13:57.262Z,8.36
2016-03-14T12:14:57.249Z,8.33
2016-03-14T12:15:57.251Z,8.29
2016-03-14T12:16:57.239Z,8.29
2016-03-14T12:17:57.256Z,8.36
2016-03-14T12:18:57.227Z,8.33
2016-03-14T12:19:57.214Z,8.36
2016-03-14T12:20:57.216Z,8.37
2016-03-14T12:21:57.204Z,8.45
2016-03-14T12:22:57.190Z,8.37
2016-03-14T12:23:57.225Z,8.45
2016-03-14T12:24:57.212Z,8.52
2016-03-14T12:25:57.199Z,8.56
2016-03-14T12:26:57.060Z,8.59
2016-03-14T12:27:57.204Z,8.63
2016-03-14T12:28:57.175Z,8.62
2016-03-14T12:29:57.163Z,8.62
2016-03-14T12:30:57.166Z,8.76
2016-03-14T12:31:57.153Z,8.7
2016-03-14T12:32:57.156Z,8.7
2016-03-14T12:33:57.158Z,8.73
2016-03-14T12:34:57.129Z,8.73
2016-03-14T12:35:57.147Z,8.59
2016-03-14T12:36:57.135Z,8.63
2016-03-14T12:37:57.122Z,8.63
2016-03-14T12:38:57.140Z,8.65
2016-03-14T12:39:56.940Z,8.55
2016-03-14T12:40:57.084Z,8.65
2016-03-14T12:41:57.117Z,8.66
2016-03-14T12:42:57.104Z,8.71
2016-03-14T12:43:57.075Z,8.59
2016-03-14T12:44:57.078Z,8.63
2016-03-14T12:45:57.080Z,8.58
2016-03-14T12:46:57.068Z,8.74
2016-03-14T12:47:57.086Z,8.58
2016-03-14T12:48:57.057Z,8.66
2016-03-14T12:49:57.076Z,8.68
2016-03-14T12:50:57.594Z,8.59
2016-03-14T12:51:57.050Z,8.65
2016-03-14T12:52:57.959Z,8.59
2016-03-14T12:53:58.041Z,8.63
2016-03-14T12:54:57.058Z,8.63
2016-03-14T12:55:57.748Z,8.76
2016-03-14T12:56:56.955Z,8.76
2016-03-14T12:57:57.004Z,8.71
2016-03-14T12:58:57.022Z,8.84
2016-03-14T12:59:57.009Z,8.91
2016-03-14T13:00:58.012Z,8.99
2016-03-14T13:01:58.201Z,9.04
2016-03-14T13:02:57.829Z,9.26
2016-03-14T13:03:56.973Z,9.33
2016-03-14T13:04:57.694Z,9.42
2016-03-14T13:05:57.478Z,9.5
2016-03-14T13:06:58.184Z,9.54
2016-03-14T13:07:56.952Z,9.58
2016-03-14T13:08:56.940Z,9.56
2016-03-14T13:09:56.942Z,9.72
2016-03-14T13:10:57.508Z,9.71
2016-03-14T13:11:57.339Z,9.69
2016-03-14T13:12:57.138Z,9.83
2016-03-14T13:13:56.922Z,9.86
2016-03-14T13:14:56.924Z,9.94
2016-03-14T13:16:11.114Z,9.93
2016-03-14T13:17:11.117Z,9.99
2016-03-14T13:18:25.732Z,9.93
2016-03-14T13:18:56.888Z,9.97
2016-03-14T13:19:57.266Z,9.87
2016-03-14T13:20:57.190Z,9.9
2016-03-14T13:21:56.880Z,9.79
2016-03-14T13:22:56.883Z,9.87
2016-03-14T13:23:56.901Z,9.78
2016-03-14T13:24:56.874Z,9.87
2016-03-14T13:25:56.860Z,9.81
2016-03-14T13:26:56.847Z,9.9
2016-03-14T13:27:56.849Z,10.09